KWRI/WRI METAR and TAF weather

Enter ICAO airport designator
Station Type Date Time Source
KWRI METAR 2022/10/01 07:55 UTC NOAA

KWRI 010755Z 03020G25KT 8SM -RA OVC008 14/13 A2998 RMK AO2A SLP152 P0010 T01350130 $


Station Type Date Time Source
KWRI Decoded METAR 2022/10/01 07:55 UTC NOAA

Mcguire Air Force Base, NJ, United States (KWRI) 40-01N 074-36W
Oct 01, 2022 - 03:55 AM EDT / 2022.10.01 0755 UTC
Wind: from the NNE (030 degrees) at 23 MPH (20 KT) gusting to 29 MPH (25 KT):0
Visibility: 8 mile(s):0
Sky conditions: overcast
Weather: light rain
Precipitation last hour: 0.10 inches
Temperature: 56.3 F (13.5 C)
Dew Point: 55.4 F (13.0 C)
Relative Humidity: 96%
Pressure (altimeter): 29.98 in. Hg (1015 hPa)
ob: KWRI 010755Z 03020G25KT 8SM -RA OVC008 14/13 A2998 RMK AO2A SLP152 P0010 T01350130
cycle: 8

Station Type Date Time Source
KWRI TAF 2022/10/01 02:09 UTC NOAA

TAF TAF KWRI 010200Z 0102/0208 05010KT 9000 -SHRA SCT030 OVC060 QNH2997INS
TEMPO 0103/0105 05012G22KT
BECMG 0105/0106 05015G25KT 6000 RA BR OVC015 QNH2996INS
BECMG 0108/0109 04015G25KT 4800 RA BR OVC007 QNH2996INS
BECMG 0115/0116 04015G25KT 9000 -SHRA OVC010 QNH2988INS
BECMG 0121/0122 03012G20KT 9999 VCSH OVC008 QNH2988INS TX16/0119Z TN11/0111Z

Example: see airport list